Address 0x5d7f57df56d99234a7056ad4ac3a0872a5e02344 1

 

Overview

Balance:
0 BNB

BNB Value:
$0.00

Token:
 
Txn Hash
Block
From
To
Value [Txn Fee]
0x4d3deb28d0ead8ffd6b5ed967cdaf93319ee3962eb0623ff2545dc15a45cd1ed79430762021-06-02 10:18:0857 days 4 hrs ago0x5d7f57df56d99234a7056ad4ac3a0872a5e02344OUT0x534a0f8b68d7291dc933e0771e157f84e804f22c0.200111421315496 BNB0.000105
0x7ff2494d6527f6185d548b1a0f9bf68c02e95c71248d5f20511e075296737eb679280972021-06-01 21:48:3957 days 16 hrs ago0x95a5438220d353996d95f703135711d3d4fa18dd IN 0x5d7f57df56d99234a7056ad4ac3a0872a5e023440.2 BNB0.000105
0x28f01d18471f421030c65d1c8d2e11e52db4310e8ddd45742f08e6f7c74e3ce970758722021-05-02 15:20:0987 days 23 hrs ago0x5d7f57df56d99234a7056ad4ac3a0872a5e02344OUT 0xcd591b77c3501cff970231ced22113b5120845850 BNB0.00017259
0xc53a7ea237f5901e9ce2fda1adec7080a752deedff43fc7f8f5df23df1e56e7d64724062021-04-11 12:44:36109 days 1 hr ago0x5d7f57df56d99234a7056ad4ac3a0872a5e02344OUT PancakeSwap: Router0.003 BNB0.00062975
0x4e344ef2cf248800dc8e6e9affcf962234c31998044bf7811c3d0d6361f0420f64564872021-04-10 23:26:43109 days 15 hrs ago0x5d7f57df56d99234a7056ad4ac3a0872a5e02344OUT PancakeSwap: Router0 BNB0.000571655
0x3021d067bce778314facfc813e596a9b0beed158f09ee8741fc879eea196035c64519522021-04-10 19:39:58109 days 18 hrs ago0x5d7f57df56d99234a7056ad4ac3a0872a5e02344OUT PancakeSwap: Router0.002 BNB0.00062975
0x42eb2faf7ea6d8d74e9ab07d3348b2383d5f160e78f301ee74c55d7ed53d234164505812021-04-10 18:31:25109 days 20 hrs ago0x5d7f57df56d99234a7056ad4ac3a0872a5e02344OUT0x73141c43b64240c4a02962f14d1e859c01dee4b80.001 BNB0.000105
0xba402403c44beccb4ba729d5eae537174867a8fb58b2c5d9807b3ca3c82027e864496422021-04-10 17:44:28109 days 20 hrs ago0x5d7f57df56d99234a7056ad4ac3a0872a5e02344SELF0x5d7f57df56d99234a7056ad4ac3a0872a5e023440 BNB0.000105
0xdf71e8e2d16af6129e039b23c4a9a88f34067f1587bc69dca1ef7c7fa9003d6364496402021-04-10 17:44:22109 days 20 hrs ago0x5d7f57df56d99234a7056ad4ac3a0872a5e02344SELF0x5d7f57df56d99234a7056ad4ac3a0872a5e023440 BNB0.000105
0x7303f4a8a53da78497e4ab7069ef6ae648fcb6ba502bdf5f599408237a5c489e64496382021-04-10 17:44:16109 days 20 hrs ago0x5d7f57df56d99234a7056ad4ac3a0872a5e02344SELF0x5d7f57df56d99234a7056ad4ac3a0872a5e023440 BNB0.000105
0x8617351db833a0262bba504c82e8df6caad746fe68173c4d7a44cefdb3e694df64496352021-04-10 17:44:07109 days 20 hrs ago0x5d7f57df56d99234a7056ad4ac3a0872a5e02344SELF0x5d7f57df56d99234a7056ad4ac3a0872a5e023440 BNB0.000105
0x9a70c048664bba73eb02b918e81263be7ad6638ae2e0936871564f936b945f5364496172021-04-10 17:43:13109 days 20 hrs ago0x5d7f57df56d99234a7056ad4ac3a0872a5e02344OUT0xae0aae77d2610815f88dd1d72a79ab0609db834f0.24 BNB0.000105
0xd8ab4702f21ea3722ca9e1a560e297dea314b0e5ffb0f0177146c5d85c6dd1c464495502021-04-10 17:39:52109 days 20 hrs ago0x5d7f57df56d99234a7056ad4ac3a0872a5e02344OUT PancakeSwap: Router0 BNB0.000571715
0x955ec5e883b119188a860bdf98476ec62158edf4189608ddd6d47568972e4e4d64491182021-04-10 17:18:16109 days 21 hrs ago0x5d7f57df56d99234a7056ad4ac3a0872a5e02344OUT0xae0aae77d2610815f88dd1d72a79ab0609db834f0.35 BNB0.000105
0xde16b26c7eadc240b6677da724b954449da9a4ac42b1591cf451db2c12f05ef364491022021-04-10 17:17:28109 days 21 hrs ago0x5d7f57df56d99234a7056ad4ac3a0872a5e02344OUT PancakeSwap: Router0 BNB0.000646655
0x9f6123c300ef1b1435f1e218f9f876637162b2db92aea95daae81a3536a0094064487012021-04-10 16:57:25109 days 21 hrs ago0x5d7f57df56d99234a7056ad4ac3a0872a5e02344OUT PancakeSwap: Router0.2 BNB0.00055475
0x15635294e064783a61ed244b013c0dd0eee08c092914776dc66cd1a9f5d0d60b64486802021-04-10 16:56:22109 days 21 hrs ago0x5d7f57df56d99234a7056ad4ac3a0872a5e02344OUT PancakeSwap: Router0 BNB0.001029225
0x3af403e92971bacc0ddc48ba37b70df3eaa95ac2beee66e36cf50657287a5a1c64481512021-04-10 16:29:53109 days 22 hrs ago0x5d7f57df56d99234a7056ad4ac3a0872a5e02344OUT PancakeSwap: Router0.006768809987073 BNB0.000881535
0x4dd82575b7226eb56f65bed947838fe76e36a201fd208c82c060222ad9df39b364481482021-04-10 16:29:44109 days 22 hrs ago0x5d7f57df56d99234a7056ad4ac3a0872a5e02344OUT 0xcf0ab2809feca548d9f1fd7ed4782e37b79faf510 BNB0.000146915
0xa2b6932fec86f62dd4df03987b65921ea7026bebb7a733063063ade30ce45cec64468452021-04-10 15:24:35109 days 23 hrs ago0x5d7f57df56d99234a7056ad4ac3a0872a5e02344OUT PancakeSwap: Router0.18 BNB0.000956595
0x74efe1ba84d03d66dfe6ed20c3404c2ded294307efcfa21513cd4dd2498e72f564468362021-04-10 15:24:08109 days 23 hrs ago0x5d7f57df56d99234a7056ad4ac3a0872a5e02344OUT 0xcf0ab2809feca548d9f1fd7ed4782e37b79faf510 BNB0.000221915
0x288cd577223adf7a0184f0953a300ad65cadf28a67f878dcfd486fd419853e0264444932021-04-10 13:25:25110 days 1 hr ago0x5d7f57df56d99234a7056ad4ac3a0872a5e02344OUT PancakeSwap: Router0.01 BNB0.00055475
0x2d4010734df284ac55e0c409c65b6e44d52239fae97385bcbc3924f4b012673364444372021-04-10 13:22:37110 days 1 hr ago0x5d7f57df56d99234a7056ad4ac3a0872a5e02344OUT PancakeSwap: Router0.01 BNB0.00055475
0x825af2b646a5e59499f1c22bcb11ccaa3e00c08a22e41aa1f0cf9cb946d0187d64443842021-04-10 13:19:58110 days 1 hr ago0x5d7f57df56d99234a7056ad4ac3a0872a5e02344OUT PancakeSwap: Router0.01 BNB0.00014863
0xff02c869708ecaa6104dcd9da6cc49abc898c38e774de41fd2606b1fafbcbd4a64443222021-04-10 13:16:52110 days 1 hr ago0x5d7f57df56d99234a7056ad4ac3a0872a5e02344OUT PancakeSwap: Router0.052325731197256 BNB0.00014863
[ Download CSV Export 
Latest 7 internal transactions
Parent Txn Hash Block From To Value
0x4e344ef2cf248800dc8e6e9affcf962234c31998044bf7811c3d0d6361f0420f64564872021-04-10 23:26:43109 days 15 hrs ago PancakeSwap: Router0x5d7f57df56d99234a7056ad4ac3a0872a5e023440.002372862216027035 BNB
0xd8ab4702f21ea3722ca9e1a560e297dea314b0e5ffb0f0177146c5d85c6dd1c464495502021-04-10 17:39:52109 days 20 hrs ago PancakeSwap: Router0x5d7f57df56d99234a7056ad4ac3a0872a5e023440.204324853502993584 BNB
0xde16b26c7eadc240b6677da724b954449da9a4ac42b1591cf451db2c12f05ef364491022021-04-10 17:17:28109 days 21 hrs ago PancakeSwap: Router0x5d7f57df56d99234a7056ad4ac3a0872a5e023440.341096411023363512 BNB
0x15635294e064783a61ed244b013c0dd0eee08c092914776dc66cd1a9f5d0d60b64486802021-04-10 16:56:22109 days 21 hrs ago PancakeSwap: Router0x5d7f57df56d99234a7056ad4ac3a0872a5e023440.244991834573112638 BNB
0x3af403e92971bacc0ddc48ba37b70df3eaa95ac2beee66e36cf50657287a5a1c64481512021-04-10 16:29:53109 days 22 hrs ago PancakeSwap: Router0x5d7f57df56d99234a7056ad4ac3a0872a5e023441 wei
0xa2b6932fec86f62dd4df03987b65921ea7026bebb7a733063063ade30ce45cec64468452021-04-10 15:24:35109 days 23 hrs ago PancakeSwap: Router0x5d7f57df56d99234a7056ad4ac3a0872a5e023441 wei
0x241f9c6fc4a6bcea01d564fba9d12c26afde332ab0cb1ce17abedfa8a026fe0164419892021-04-10 11:20:10110 days 3 hrs ago 0xcd591b77c3501cff970231ced22113b5120845850x5d7f57df56d99234a7056ad4ac3a0872a5e023440.21853536 BNB
[ Download CSV Export 
Loading

Contract Name:
0 BNB

Compiler Version
0

Optimization Enabled:
0 BNB

Other Settings:
-NA-
Block Transaction Gas Used Reward
Age Block Fee Address BC Fee Address Voting Power Jailed Incoming
Block Uncle Number Difficulty Gas Used Reward
Loading
Loading
Make sure to use the "Vote Down" button for any spammy posts, and the "Vote Up" for interesting conversations.